sensor_id;sensor_type;location;lat;lon;timestamp;temperature;humidity
8422;DHT22;4248;48.196;10.924;2023-03-13T00:00:15;7.40;56.60
8422;DHT22;4248;48.196;10.924;2023-03-13T00:02:41;7.40;56.50
8422;DHT22;4248;48.196;10.924;2023-03-13T00:05:10;7.40;56.60
8422;DHT22;4248;48.196;10.924;2023-03-13T00:07:36;7.40;56.40
8422;DHT22;4248;48.196;10.924;2023-03-13T00:10:01;7.40;56.50
8422;DHT22;4248;48.196;10.924;2023-03-13T00:12:27;7.40;56.50
8422;DHT22;4248;48.196;10.924;2023-03-13T00:14:52;7.40;56.40
8422;DHT22;4248;48.196;10.924;2023-03-13T00:17:18;7.40;56.60
8422;DHT22;4248;48.196;10.924;2023-03-13T00:19:43;7.30;56.40
8422;DHT22;4248;48.196;10.924;2023-03-13T00:22:09;7.40;56.40
8422;DHT22;4248;48.196;10.924;2023-03-13T00:24:34;7.30;56.30
8422;DHT22;4248;48.196;10.924;2023-03-13T00:27:00;7.30;56.30
8422;DHT22;4248;48.196;10.924;2023-03-13T00:29:28;7.20;56.40
8422;DHT22;4248;48.196;10.924;2023-03-13T00:31:54;7.10;56.30
8422;DHT22;4248;48.196;10.924;2023-03-13T00:34:19;7.10;56.50
8422;DHT22;4248;48.196;10.924;2023-03-13T00:36:45;7.10;56.40
8422;DHT22;4248;48.196;10.924;2023-03-13T00:39:10;7.00;56.20
8422;DHT22;4248;48.196;10.924;2023-03-13T00:41:36;7.00;56.30
8422;DHT22;4248;48.196;10.924;2023-03-13T00:44:02;6.90;56.30
8422;DHT22;4248;48.196;10.924;2023-03-13T00:46:29;6.80;56.40
8422;DHT22;4248;48.196;10.924;2023-03-13T00:48:56;6.70;56.40
8422;DHT22;4248;48.196;10.924;2023-03-13T00:51:23;6.70;56.40
8422;DHT22;4248;48.196;10.924;2023-03-13T00:53:51;6.70;56.50
8422;DHT22;4248;48.196;10.924;2023-03-13T00:56:18;6.60;56.60
8422;DHT22;4248;48.196;10.924;2023-03-13T00:58:45;6.60;56.60
8422;DHT22;4248;48.196;10.924;2023-03-13T01:01:34;6.50;56.50
8422;DHT22;4248;48.196;10.924;2023-03-13T01:04:08;6.40;56.50
8422;DHT22;4248;48.196;10.924;2023-03-13T01:06:37;6.40;56.70
8422;DHT22;4248;48.196;10.924;2023-03-13T01:09:06;6.30;56.60
8422;DHT22;4248;48.196;10.924;2023-03-13T01:11:35;6.30;56.90
8422;DHT22;4248;48.196;10.924;2023-03-13T01:14:03;6.20;56.80
8422;DHT22;4248;48.196;10.924;2023-03-13T01:16:30;6.10;56.90
8422;DHT22;4248;48.196;10.924;2023-03-13T01:19:00;6.10;56.90
8422;DHT22;4248;48.196;10.924;2023-03-13T01:21:26;6.10;56.70
8422;DHT22;4248;48.196;10.924;2023-03-13T01:23:53;6.00;56.80
8422;DHT22;4248;48.196;10.924;2023-03-13T01:26:19;6.00;56.80
8422;DHT22;4248;48.196;10.924;2023-03-13T01:28:45;6.00;56.60
8422;DHT22;4248;48.196;10.924;2023-03-13T01:31:23;5.90;56.50
8422;DHT22;4248;48.196;10.924;2023-03-13T01:33:52;6.00;56.40
8422;DHT22;4248;48.196;10.924;2023-03-13T01:36:18;5.90;56.40
8422;DHT22;4248;48.196;10.924;2023-03-13T01:38:50;5.90;56.30
8422;DHT22;4248;48.196;10.924;2023-03-13T01:41:17;5.90;56.30
8422;DHT22;4248;48.196;10.924;2023-03-13T01:43:44;5.90;56.40
8422;DHT22;4248;48.196;10.924;2023-03-13T01:46:18;5.90;56.40
8422;DHT22;4248;48.196;10.924;2023-03-13T01:51:20;6.00;56.30
8422;DHT22;4248;48.196;10.924;2023-03-13T01:53:50;6.10;56.20
8422;DHT22;4248;48.196;10.924;2023-03-13T01:56:27;6.20;56.00
8422;DHT22;4248;48.196;10.924;2023-03-13T01:58:56;6.30;55.90
8422;DHT22;4248;48.196;10.924;2023-03-13T02:01:22;6.30;55.90
8422;DHT22;4248;48.196;10.924;2023-03-13T02:03:49;6.30;55.70
8422;DHT22;4248;48.196;10.924;2023-03-13T02:06:16;6.40;55.60
8422;DHT22;4248;48.196;10.924;2023-03-13T02:08:46;6.50;55.60
8422;DHT22;4248;48.196;10.924;2023-03-13T02:14:05;6.40;55.50
8422;DHT22;4248;48.196;10.924;2023-03-13T02:16:33;6.40;55.50
8422;DHT22;4248;48.196;10.924;2023-03-13T02:19:00;6.40;55.50
8422;DHT22;4248;48.196;10.924;2023-03-13T02:21:41;6.30;55.80
8422;DHT22;4248;48.196;10.924;2023-03-13T02:24:34;6.20;56.10
8422;DHT22;4248;48.196;10.924;2023-03-13T02:27:02;6.20;56.10
8422;DHT22;4248;48.196;10.924;2023-03-13T02:29:28;6.30;56.10
8422;DHT22;4248;48.196;10.924;2023-03-13T02:31:54;6.30;56.00
8422;DHT22;4248;48.196;10.924;2023-03-13T02:34:22;6.40;55.90
8422;DHT22;4248;48.196;10.924;2023-03-13T02:36:49;6.50;56.00
8422;DHT22;4248;48.196;10.924;2023-03-13T02:39:16;6.60;55.90
8422;DHT22;4248;48.196;10.924;2023-03-13T02:41:44;6.70;55.60
8422;DHT22;4248;48.196;10.924;2023-03-13T02:44:11;6.80;55.50
8422;DHT22;4248;48.196;10.924;2023-03-13T02:46:45;6.90;55.40
8422;DHT22;4248;48.196;10.924;2023-03-13T02:51:46;7.00;55.30
8422;DHT22;4248;48.196;10.924;2023-03-13T02:54:17;7.10;55.20
8422;DHT22;4248;48.196;10.924;2023-03-13T02:56:46;7.10;55.20
8422;DHT22;4248;48.196;10.924;2023-03-13T02:59:13;7.10;55.10
8422;DHT22;4248;48.196;10.924;2023-03-13T03:01:39;7.20;54.90
8422;DHT22;4248;48.196;10.924;2023-03-13T03:04:05;7.20;54.70
8422;DHT22;4248;48.196;10.924;2023-03-13T03:06:30;7.20;54.80
8422;DHT22;4248;48.196;10.924;2023-03-13T03:08:57;7.20;54.70
8422;DHT22;4248;48.196;10.924;2023-03-13T03:11:22;7.30;54.90
8422;DHT22;4248;48.196;10.924;2023-03-13T03:13:48;7.30;54.80
8422;DHT22;4248;48.196;10.924;2023-03-13T03:16:14;7.30;54.80
8422;DHT22;4248;48.196;10.924;2023-03-13T03:18:43;7.30;54.80
8422;DHT22;4248;48.196;10.924;2023-03-13T03:21:08;7.40;54.80
8422;DHT22;4248;48.196;10.924;2023-03-13T03:23:35;7.40;54.90
8422;DHT22;4248;48.196;10.924;2023-03-13T03:26:01;7.40;55.20
8422;DHT22;4248;48.196;10.924;2023-03-13T03:28:28;7.30;55.10
8422;DHT22;4248;48.196;10.924;2023-03-13T03:30:54;7.30;55.20
8422;DHT22;4248;48.196;10.924;2023-03-13T03:33:21;7.30;55.20
8422;DHT22;4248;48.196;10.924;2023-03-13T03:35:46;7.30;55.10
8422;DHT22;4248;48.196;10.924;2023-03-13T03:38:12;7.30;55.20
8422;DHT22;4248;48.196;10.924;2023-03-13T03:40:37;7.20;55.40
8422;DHT22;4248;48.196;10.924;2023-03-13T03:43:03;7.20;55.30
8422;DHT22;4248;48.196;10.924;2023-03-13T03:45:28;7.20;55.50
8422;DHT22;4248;48.196;10.924;2023-03-13T03:47:54;7.20;55.60
8422;DHT22;4248;48.196;10.924;2023-03-13T03:50:20;7.10;55.70
8422;DHT22;4248;48.196;10.924;2023-03-13T03:52:45;7.10;55.80
8422;DHT22;4248;48.196;10.924;2023-03-13T03:55:11;7.10;55.90
8422;DHT22;4248;48.196;10.924;2023-03-13T03:57:36;7.00;56.20
8422;DHT22;4248;48.196;10.924;2023-03-13T04:00:03;6.90;56.30
8422;DHT22;4248;48.196;10.924;2023-03-13T04:02:29;6.90;56.40
8422;DHT22;4248;48.196;10.924;2023-03-13T04:04:55;7.00;56.30
8422;DHT22;4248;48.196;10.924;2023-03-13T04:07:20;7.10;56.10
8422;DHT22;4248;48.196;10.924;2023-03-13T04:09:46;7.20;55.70
8422;DHT22;4248;48.196;10.924;2023-03-13T04:12:11;7.30;55.50
8422;DHT22;4248;48.196;10.924;2023-03-13T04:14:37;7.50;55.20
8422;DHT22;4248;48.196;10.924;2023-03-13T04:17:02;7.70;54.90
8422;DHT22;4248;48.196;10.924;2023-03-13T04:19:28;7.70;54.50
8422;DHT22;4248;48.196;10.924;2023-03-13T04:21:53;7.80;54.50
8422;DHT22;4248;48.196;10.924;2023-03-13T04:24:19;7.90;54.20
8422;DHT22;4248;48.196;10.924;2023-03-13T04:26:44;8.00;54.00
8422;DHT22;4248;48.196;10.924;2023-03-13T04:29:10;8.10;54.10
8422;DHT22;4248;48.196;10.924;2023-03-13T04:31:36;8.10;54.20
8422;DHT22;4248;48.196;10.924;2023-03-13T04:34:01;8.20;54.40
8422;DHT22;4248;48.196;10.924;2023-03-13T04:36:27;8.20;54.20
8422;DHT22;4248;48.196;10.924;2023-03-13T04:38:52;8.30;54.30
8422;DHT22;4248;48.196;10.924;2023-03-13T04:41:18;8.30;54.20
8422;DHT22;4248;48.196;10.924;2023-03-13T04:43:43;8.40;54.10
8422;DHT22;4248;48.196;10.924;2023-03-13T04:46:09;8.50;54.10
8422;DHT22;4248;48.196;10.924;2023-03-13T04:48:34;8.50;53.90
8422;DHT22;4248;48.196;10.924;2023-03-13T04:51:00;8.60;54.00
8422;DHT22;4248;48.196;10.924;2023-03-13T04:53:25;8.70;53.90
8422;DHT22;4248;48.196;10.924;2023-03-13T04:55:51;8.70;53.70
8422;DHT22;4248;48.196;10.924;2023-03-13T04:58:16;8.80;53.60
8422;DHT22;4248;48.196;10.924;2023-03-13T05:00:42;8.80;53.40
8422;DHT22;4248;48.196;10.924;2023-03-13T05:03:07;8.90;53.30
8422;DHT22;4248;48.196;10.924;2023-03-13T05:05:34;9.00;53.00
8422;DHT22;4248;48.196;10.924;2023-03-13T05:08:00;9.00;53.00
8422;DHT22;4248;48.196;10.924;2023-03-13T05:10:25;9.10;52.70
8422;DHT22;4248;48.196;10.924;2023-03-13T05:12:51;9.10;52.50
8422;DHT22;4248;48.196;10.924;2023-03-13T05:15:16;9.20;52.40
8422;DHT22;4248;48.196;10.924;2023-03-13T05:17:42;9.20;51.90
8422;DHT22;4248;48.196;10.924;2023-03-13T05:20:08;9.20;51.90
8422;DHT22;4248;48.196;10.924;2023-03-13T05:22:38;9.30;52.00
8422;DHT22;4248;48.196;10.924;2023-03-13T05:25:04;9.30;52.00
8422;DHT22;4248;48.196;10.924;2023-03-13T05:27:30;9.30;52.00
8422;DHT22;4248;48.196;10.924;2023-03-13T05:29:55;9.40;52.10
8422;DHT22;4248;48.196;10.924;2023-03-13T05:32:21;9.40;52.10
8422;DHT22;4248;48.196;10.924;2023-03-13T05:34:46;9.40;51.60
8422;DHT22;4248;48.196;10.924;2023-03-13T05:37:12;9.40;51.50
8422;DHT22;4248;48.196;10.924;2023-03-13T05:39:37;9.40;51.60
8422;DHT22;4248;48.196;10.924;2023-03-13T05:42:03;9.50;51.30
8422;DHT22;4248;48.196;10.924;2023-03-13T05:44:29;9.40;51.10
8422;DHT22;4248;48.196;10.924;2023-03-13T05:46:54;9.50;51.00
8422;DHT22;4248;48.196;10.924;2023-03-13T05:49:20;9.50;50.90
8422;DHT22;4248;48.196;10.924;2023-03-13T05:51:45;9.60;50.70
8422;DHT22;4248;48.196;10.924;2023-03-13T05:54:11;9.50;50.50
8422;DHT22;4248;48.196;10.924;2023-03-13T05:56:36;9.50;50.50
8422;DHT22;4248;48.196;10.924;2023-03-13T05:59:02;9.50;50.50
8422;DHT22;4248;48.196;10.924;2023-03-13T06:01:27;9.60;50.70
8422;DHT22;4248;48.196;10.924;2023-03-13T06:03:53;9.60;50.60
8422;DHT22;4248;48.196;10.924;2023-03-13T06:06:19;9.70;50.50
8422;DHT22;4248;48.196;10.924;2023-03-13T06:08:44;9.90;50.30
8422;DHT22;4248;48.196;10.924;2023-03-13T06:11:10;10.00;49.20
8422;DHT22;4248;48.196;10.924;2023-03-13T06:13:35;10.10;48.80
8422;DHT22;4248;48.196;10.924;2023-03-13T06:16:01;10.20;48.30
8422;DHT22;4248;48.196;10.924;2023-03-13T06:18:26;10.40;48.10
8422;DHT22;4248;48.196;10.924;2023-03-13T06:21:00;10.50;47.70
8422;DHT22;4248;48.196;10.924;2023-03-13T06:23:26;10.70;47.20
8422;DHT22;4248;48.196;10.924;2023-03-13T06:25:51;10.70;46.90
8422;DHT22;4248;48.196;10.924;2023-03-13T06:28:17;10.80;46.60
8422;DHT22;4248;48.196;10.924;2023-03-13T06:30:43;10.90;46.50
8422;DHT22;4248;48.196;10.924;2023-03-13T06:33:08;11.00;46.20
8422;DHT22;4248;48.196;10.924;2023-03-13T06:35:34;11.00;46.00
8422;DHT22;4248;48.196;10.924;2023-03-13T06:37:59;11.10;46.00
8422;DHT22;4248;48.196;10.924;2023-03-13T06:40:25;11.10;45.80
8422;DHT22;4248;48.196;10.924;2023-03-13T06:42:50;11.20;45.20
8422;DHT22;4248;48.196;10.924;2023-03-13T06:45:16;11.30;45.30
8422;DHT22;4248;48.196;10.924;2023-03-13T06:47:41;11.30;45.00
8422;DHT22;4248;48.196;10.924;2023-03-13T06:50:08;11.50;44.80
8422;DHT22;4248;48.196;10.924;2023-03-13T06:52:34;11.40;44.50
8422;DHT22;4248;48.196;10.924;2023-03-13T06:54:59;11.60;44.00
8422;DHT22;4248;48.196;10.924;2023-03-13T06:57:25;11.60;43.50
8422;DHT22;4248;48.196;10.924;2023-03-13T06:59:51;11.70;43.20
8422;DHT22;4248;48.196;10.924;2023-03-13T07:02:16;11.80;43.00
8422;DHT22;4248;48.196;10.924;2023-03-13T07:04:42;11.80;42.80
8422;DHT22;4248;48.196;10.924;2023-03-13T07:07:08;11.80;42.20
8422;DHT22;4248;48.196;10.924;2023-03-13T07:09:33;11.90;42.20
8422;DHT22;4248;48.196;10.924;2023-03-13T07:11:59;11.90;41.90
8422;DHT22;4248;48.196;10.924;2023-03-13T07:14:25;12.00;41.60
8422;DHT22;4248;48.196;10.924;2023-03-13T07:16:50;12.20;40.70
8422;DHT22;4248;48.196;10.924;2023-03-13T07:19:16;12.30;40.50
8422;DHT22;4248;48.196;10.924;2023-03-13T07:21:42;12.60;40.80
8422;DHT22;4248;48.196;10.924;2023-03-13T07:24:08;12.50;39.90
8422;DHT22;4248;48.196;10.924;2023-03-13T07:26:34;12.60;39.40
8422;DHT22;4248;48.196;10.924;2023-03-13T07:28:59;12.70;39.20
8422;DHT22;4248;48.196;10.924;2023-03-13T07:31:25;12.70;38.90
8422;DHT22;4248;48.196;10.924;2023-03-13T07:33:53;12.70;38.70
8422;DHT22;4248;48.196;10.924;2023-03-13T07:36:21;12.80;38.30
8422;DHT22;4248;48.196;10.924;2023-03-13T07:38:47;12.80;38.20
8422;DHT22;4248;48.196;10.924;2023-03-13T07:41:13;12.80;37.80
8422;DHT22;4248;48.196;10.924;2023-03-13T07:43:39;12.80;37.60
8422;DHT22;4248;48.196;10.924;2023-03-13T07:46:07;12.80;37.90
8422;DHT22;4248;48.196;10.924;2023-03-13T07:48:37;12.90;37.50
8422;DHT22;4248;48.196;10.924;2023-03-13T07:51:06;12.80;37.40
8422;DHT22;4248;48.196;10.924;2023-03-13T07:53:32;12.80;37.20
8422;DHT22;4248;48.196;10.924;2023-03-13T07:58:30;12.70;37.50
8422;DHT22;4248;48.196;10.924;2023-03-13T08:00:56;12.70;37.70
8422;DHT22;4248;48.196;10.924;2023-03-13T08:03:22;12.70;37.40
8422;DHT22;4248;48.196;10.924;2023-03-13T08:06:06;12.80;37.60
8422;DHT22;4248;48.196;10.924;2023-03-13T08:08:32;12.80;37.80
8422;DHT22;4248;48.196;10.924;2023-03-13T08:11:03;12.80;38.00
8422;DHT22;4248;48.196;10.924;2023-03-13T08:13:29;12.80;38.30
8422;DHT22;4248;48.196;10.924;2023-03-13T08:16:15;12.80;38.30
8422;DHT22;4248;48.196;10.924;2023-03-13T08:18:46;12.90;38.30
8422;DHT22;4248;48.196;10.924;2023-03-13T08:21:17;13.00;38.30
8422;DHT22;4248;48.196;10.924;2023-03-13T08:23:43;13.20;38.30
8422;DHT22;4248;48.196;10.924;2023-03-13T08:26:14;13.30;37.90
8422;DHT22;4248;48.196;10.924;2023-03-13T08:28:42;13.70;37.50
8422;DHT22;4248;48.196;10.924;2023-03-13T08:31:17;14.00;36.60
8422;DHT22;4248;48.196;10.924;2023-03-13T08:33:44;14.30;36.00
8422;DHT22;4248;48.196;10.924;2023-03-13T08:36:22;14.50;35.90
8422;DHT22;4248;48.196;10.924;2023-03-13T08:38:53;14.60;35.20
8422;DHT22;4248;48.196;10.924;2023-03-13T08:41:25;14.70;35.10
8422;DHT22;4248;48.196;10.924;2023-03-13T08:43:53;14.60;34.90
8422;DHT22;4248;48.196;10.924;2023-03-13T08:46:19;14.60;34.80
8422;DHT22;4248;48.196;10.924;2023-03-13T08:48:48;14.50;34.70
8422;DHT22;4248;48.196;10.924;2023-03-13T08:51:15;14.60;35.70
8422;DHT22;4248;48.196;10.924;2023-03-13T08:53:42;14.50;34.40
8422;DHT22;4248;48.196;10.924;2023-03-13T08:56:10;14.50;34.20
8422;DHT22;4248;48.196;10.924;2023-03-13T08:58:35;14.80;33.80
8422;DHT22;4248;48.196;10.924;2023-03-13T09:01:07;15.20;33.20
8422;DHT22;4248;48.196;10.924;2023-03-13T09:03:33;15.50;32.60
8422;DHT22;4248;48.196;10.924;2023-03-13T09:05:59;15.60;32.10
8422;DHT22;4248;48.196;10.924;2023-03-13T09:08:26;15.80;31.80
8422;DHT22;4248;48.196;10.924;2023-03-13T09:11:07;15.80;32.60
8422;DHT22;4248;48.196;10.924;2023-03-13T09:13:35;15.60;30.00
8422;DHT22;4248;48.196;10.924;2023-03-13T09:16:12;15.70;30.30
8422;DHT22;4248;48.196;10.924;2023-03-13T09:18:38;15.90;30.30
8422;DHT22;4248;48.196;10.924;2023-03-13T09:21:12;16.00;30.30
8422;DHT22;4248;48.196;10.924;2023-03-13T09:23:38;16.10;29.80
8422;DHT22;4248;48.196;10.924;2023-03-13T09:26:04;16.40;29.80
8422;DHT22;4248;48.196;10.924;2023-03-13T09:28:30;16.40;29.30
8422;DHT22;4248;48.196;10.924;2023-03-13T09:31:05;16.40;28.90
8422;DHT22;4248;48.196;10.924;2023-03-13T09:33:32;16.50;28.50
8422;DHT22;4248;48.196;10.924;2023-03-13T09:35:57;16.40;28.20
8422;DHT22;4248;48.196;10.924;2023-03-13T09:38:23;16.50;28.40
8422;DHT22;4248;48.196;10.924;2023-03-13T09:40:49;16.50;27.90
8422;DHT22;4248;48.196;10.924;2023-03-13T09:45:53;16.40;28.20
8422;DHT22;4248;48.196;10.924;2023-03-13T09:48:30;16.50;28.30
8422;DHT22;4248;48.196;10.924;2023-03-13T09:53:54;16.50;28.10
8422;DHT22;4248;48.196;10.924;2023-03-13T09:56:44;16.20;27.60
8422;DHT22;4248;48.196;10.924;2023-03-13T09:59:21;16.30;26.50
8422;DHT22;4248;48.196;10.924;2023-03-13T10:01:49;16.50;26.80
8422;DHT22;4248;48.196;10.924;2023-03-13T10:06:45;17.20;26.00
8422;DHT22;4248;48.196;10.924;2023-03-13T10:09:17;17.20;26.90
8422;DHT22;4248;48.196;10.924;2023-03-13T10:14:43;17.00;26.30
8422;DHT22;4248;48.196;10.924;2023-03-13T10:19:59;16.60;26.90
8422;DHT22;4248;48.196;10.924;2023-03-13T10:22:27;16.50;26.60
8422;DHT22;4248;48.196;10.924;2023-03-13T10:24:59;16.70;26.70
8422;DHT22;4248;48.196;10.924;2023-03-13T10:27:26;16.90;27.10
8422;DHT22;4248;48.196;10.924;2023-03-13T10:29:52;17.10;26.90
8422;DHT22;4248;48.196;10.924;2023-03-13T10:32:18;17.40;26.90
8422;DHT22;4248;48.196;10.924;2023-03-13T10:34:55;17.50;26.70
8422;DHT22;4248;48.196;10.924;2023-03-13T10:39:48;17.20;25.90
8422;DHT22;4248;48.196;10.924;2023-03-13T10:42:27;16.90;26.30
8422;DHT22;4248;48.196;10.924;2023-03-13T10:45:04;16.60;27.90
8422;DHT22;4248;48.196;10.924;2023-03-13T10:47:34;16.50;27.30
8422;DHT22;4248;48.196;10.924;2023-03-13T10:50:01;16.70;27.40
8422;DHT22;4248;48.196;10.924;2023-03-13T10:52:45;16.90;27.20
8422;DHT22;4248;48.196;10.924;2023-03-13T10:55:16;17.10;27.10
8422;DHT22;4248;48.196;10.924;2023-03-13T11:02:53;17.60;26.80
8422;DHT22;4248;48.196;10.924;2023-03-13T11:07:55;17.40;26.60
8422;DHT22;4248;48.196;10.924;2023-03-13T11:10:26;17.60;26.80
8422;DHT22;4248;48.196;10.924;2023-03-13T11:12:55;17.60;26.30
8422;DHT22;4248;48.196;10.924;2023-03-13T11:15:31;17.70;26.50
8422;DHT22;4248;48.196;10.924;2023-03-13T11:18:06;17.90;26.40
8422;DHT22;4248;48.196;10.924;2023-03-13T11:20:38;18.00;26.30
8422;DHT22;4248;48.196;10.924;2023-03-13T11:37:01;18.00;26.30
8422;DHT22;4248;48.196;10.924;2023-03-13T11:40:08;18.00;26.70
8422;DHT22;4248;48.196;10.924;2023-03-13T11:42:38;17.90;26.70
8422;DHT22;4248;48.196;10.924;2023-03-13T11:50:17;18.10;26.60
8422;DHT22;4248;48.196;10.924;2023-03-13T11:55:45;18.00;26.20
8422;DHT22;4248;48.196;10.924;2023-03-13T11:58:31;18.10;26.50
8422;DHT22;4248;48.196;10.924;2023-03-13T12:01:22;18.20;26.40
8422;DHT22;4248;48.196;10.924;2023-03-13T12:06:33;18.30;25.60
8422;DHT22;4248;48.196;10.924;2023-03-13T12:09:25;18.40;25.70
8422;DHT22;4248;48.196;10.924;2023-03-13T12:12:14;18.50;25.60
8422;DHT22;4248;48.196;10.924;2023-03-13T12:14:55;18.60;25.60
8422;DHT22;4248;48.196;10.924;2023-03-13T12:17:34;18.70;25.10
8422;DHT22;4248;48.196;10.924;2023-03-13T12:20:12;18.40;25.50
8422;DHT22;4248;48.196;10.924;2023-03-13T12:22:55;18.50;25.80
8422;DHT22;4248;48.196;10.924;2023-03-13T12:25:27;18.40;25.90
8422;DHT22;4248;48.196;10.924;2023-03-13T12:28:15;18.50;25.70
8422;DHT22;4248;48.196;10.924;2023-03-13T12:33:39;18.50;25.40
8422;DHT22;4248;48.196;10.924;2023-03-13T12:36:20;18.60;25.50
8422;DHT22;4248;48.196;10.924;2023-03-13T12:38:59;18.40;25.30
8422;DHT22;4248;48.196;10.924;2023-03-13T12:41:41;18.20;26.10
8422;DHT22;4248;48.196;10.924;2023-03-13T12:44:17;18.20;26.40
8422;DHT22;4248;48.196;10.924;2023-03-13T12:46:45;18.20;26.60
8422;DHT22;4248;48.196;10.924;2023-03-13T12:49:28;18.20;26.90
8422;DHT22;4248;48.196;10.924;2023-03-13T12:52:50;18.30;26.20
8422;DHT22;4248;48.196;10.924;2023-03-13T12:58:12;18.60;25.90
8422;DHT22;4248;48.196;10.924;2023-03-13T13:00:41;18.50;25.10
8422;DHT22;4248;48.196;10.924;2023-03-13T13:03:39;18.60;24.50
8422;DHT22;4248;48.196;10.924;2023-03-13T13:14:01;18.10;25.30
8422;DHT22;4248;48.196;10.924;2023-03-13T13:16:27;18.10;25.80
8422;DHT22;4248;48.196;10.924;2023-03-13T13:18:54;18.10;25.70
8422;DHT22;4248;48.196;10.924;2023-03-13T13:21:22;18.20;25.70
8422;DHT22;4248;48.196;10.924;2023-03-13T13:23:49;18.30;25.50
8422;DHT22;4248;48.196;10.924;2023-03-13T13:31:53;18.80;25.50
8422;DHT22;4248;48.196;10.924;2023-03-13T13:36:57;18.80;26.00
8422;DHT22;4248;48.196;10.924;2023-03-13T13:39:46;18.90;25.60
8422;DHT22;4248;48.196;10.924;2023-03-13T13:45:21;19.20;25.00
8422;DHT22;4248;48.196;10.924;2023-03-13T13:47:50;19.10;25.00
8422;DHT22;4248;48.196;10.924;2023-03-13T13:50:21;19.20;25.10
8422;DHT22;4248;48.196;10.924;2023-03-13T13:52:48;19.30;24.90
8422;DHT22;4248;48.196;10.924;2023-03-13T13:55:53;19.40;24.80
8422;DHT22;4248;48.196;10.924;2023-03-13T13:58:21;19.50;24.70
8422;DHT22;4248;48.196;10.924;2023-03-13T14:00:57;19.60;24.50
8422;DHT22;4248;48.196;10.924;2023-03-13T14:03:29;19.60;24.20
8422;DHT22;4248;48.196;10.924;2023-03-13T14:06:01;19.70;24.00
8422;DHT22;4248;48.196;10.924;2023-03-13T14:08:35;19.90;23.80
8422;DHT22;4248;48.196;10.924;2023-03-13T14:11:32;19.70;23.40
8422;DHT22;4248;48.196;10.924;2023-03-13T14:14:18;19.80;23.10
8422;DHT22;4248;48.196;10.924;2023-03-13T14:16:55;19.80;23.10
8422;DHT22;4248;48.196;10.924;2023-03-13T14:19:43;19.80;23.10
8422;DHT22;4248;48.196;10.924;2023-03-13T14:22:10;20.00;23.00
8422;DHT22;4248;48.196;10.924;2023-03-13T14:24:38;19.80;23.10
8422;DHT22;4248;48.196;10.924;2023-03-13T14:27:17;19.80;23.10
8422;DHT22;4248;48.196;10.924;2023-03-13T14:29:59;19.80;22.70
8422;DHT22;4248;48.196;10.924;2023-03-13T14:32:25;19.80;22.90
8422;DHT22;4248;48.196;10.924;2023-03-13T14:34:51;19.80;23.20
8422;DHT22;4248;48.196;10.924;2023-03-13T14:37:35;19.90;23.10
8422;DHT22;4248;48.196;10.924;2023-03-13T14:40:06;20.10;22.90
8422;DHT22;4248;48.196;10.924;2023-03-13T14:42:44;19.90;22.40
8422;DHT22;4248;48.196;10.924;2023-03-13T14:45:20;19.90;22.60
8422;DHT22;4248;48.196;10.924;2023-03-13T14:47:48;19.80;22.70
8422;DHT22;4248;48.196;10.924;2023-03-13T14:50:14;19.80;23.10
8422;DHT22;4248;48.196;10.924;2023-03-13T14:52:45;19.70;23.20
8422;DHT22;4248;48.196;10.924;2023-03-13T14:58:04;19.60;23.00
8422;DHT22;4248;48.196;10.924;2023-03-13T15:08:37;19.90;22.40
8422;DHT22;4248;48.196;10.924;2023-03-13T15:11:27;20.00;22.50
8422;DHT22;4248;48.196;10.924;2023-03-13T15:13:55;20.00;22.40
8422;DHT22;4248;48.196;10.924;2023-03-13T15:16:26;20.10;22.50
8422;DHT22;4248;48.196;10.924;2023-03-13T15:18:52;20.10;22.50
8422;DHT22;4248;48.196;10.924;2023-03-13T15:21:27;20.20;22.60
8422;DHT22;4248;48.196;10.924;2023-03-13T15:24:03;20.00;22.40
8422;DHT22;4248;48.196;10.924;2023-03-13T15:26:34;19.90;22.40
8422;DHT22;4248;48.196;10.924;2023-03-13T15:29:00;19.80;22.30
8422;DHT22;4248;48.196;10.924;2023-03-13T15:31:27;19.70;22.30
8422;DHT22;4248;48.196;10.924;2023-03-13T15:33:58;19.70;22.20
8422;DHT22;4248;48.196;10.924;2023-03-13T15:36:25;19.50;22.10
8422;DHT22;4248;48.196;10.924;2023-03-13T15:38:51;19.50;22.20
8422;DHT22;4248;48.196;10.924;2023-03-13T15:41:18;19.50;22.10
8422;DHT22;4248;48.196;10.924;2023-03-13T15:43:44;19.60;22.10
8422;DHT22;4248;48.196;10.924;2023-03-13T15:46:12;19.60;22.10
8422;DHT22;4248;48.196;10.924;2023-03-13T15:48:41;19.80;22.30
8422;DHT22;4248;48.196;10.924;2023-03-13T15:51:12;19.70;23.20
8422;DHT22;4248;48.196;10.924;2023-03-13T15:53:39;19.80;22.30
8422;DHT22;4248;48.196;10.924;2023-03-13T15:58:38;19.70;22.20
8422;DHT22;4248;48.196;10.924;2023-03-13T16:01:04;19.70;22.20
8422;DHT22;4248;48.196;10.924;2023-03-13T16:03:30;19.40;22.00
8422;DHT22;4248;48.196;10.924;2023-03-13T16:05:56;19.20;21.90
8422;DHT22;4248;48.196;10.924;2023-03-13T16:08:26;19.00;21.80
8422;DHT22;4248;48.196;10.924;2023-03-13T16:10:52;18.80;22.20
8422;DHT22;4248;48.196;10.924;2023-03-13T16:13:19;18.50;22.50
8422;DHT22;4248;48.196;10.924;2023-03-13T16:15:45;18.40;22.80
8422;DHT22;4248;48.196;10.924;2023-03-13T16:18:22;18.20;23.00
8422;DHT22;4248;48.196;10.924;2023-03-13T16:20:49;18.20;23.30
8422;DHT22;4248;48.196;10.924;2023-03-13T16:23:15;18.10;23.40
8422;DHT22;4248;48.196;10.924;2023-03-13T16:25:42;18.00;23.70
8422;DHT22;4248;48.196;10.924;2023-03-13T16:28:11;17.90;23.80
8422;DHT22;4248;48.196;10.924;2023-03-13T16:30:38;17.80;24.00
8422;DHT22;4248;48.196;10.924;2023-03-13T16:33:08;17.90;24.30
8422;DHT22;4248;48.196;10.924;2023-03-13T16:35:34;17.80;24.30
8422;DHT22;4248;48.196;10.924;2023-03-13T16:37:59;17.80;24.30
8422;DHT22;4248;48.196;10.924;2023-03-13T16:40:28;17.80;24.40
8422;DHT22;4248;48.196;10.924;2023-03-13T16:42:54;17.70;24.40
8422;DHT22;4248;48.196;10.924;2023-03-13T16:45:20;17.50;24.80
8422;DHT22;4248;48.196;10.924;2023-03-13T16:47:46;17.40;25.10
8422;DHT22;4248;48.196;10.924;2023-03-13T16:50:25;17.20;25.50
8422;DHT22;4248;48.196;10.924;2023-03-13T16:52:51;17.00;25.70
8422;DHT22;4248;48.196;10.924;2023-03-13T16:55:17;16.90;25.90
8422;DHT22;4248;48.196;10.924;2023-03-13T16:57:43;16.80;26.20
8422;DHT22;4248;48.196;10.924;2023-03-13T17:00:16;16.60;26.50
8422;DHT22;4248;48.196;10.924;2023-03-13T17:02:42;16.40;26.70
8422;DHT22;4248;48.196;10.924;2023-03-13T17:05:09;16.20;26.90
8422;DHT22;4248;48.196;10.924;2023-03-13T17:07:36;16.00;27.20
8422;DHT22;4248;48.196;10.924;2023-03-13T17:10:05;15.80;27.50
8422;DHT22;4248;48.196;10.924;2023-03-13T17:12:38;15.70;27.90
8422;DHT22;4248;48.196;10.924;2023-03-13T17:15:04;15.60;28.20
8422;DHT22;4248;48.196;10.924;2023-03-13T17:17:30;15.40;28.40
8422;DHT22;4248;48.196;10.924;2023-03-13T17:19:56;15.30;28.70
8422;DHT22;4248;48.196;10.924;2023-03-13T17:22:21;15.20;28.90
8422;DHT22;4248;48.196;10.924;2023-03-13T17:24:47;15.10;29.00
8422;DHT22;4248;48.196;10.924;2023-03-13T17:27:14;15.00;29.20
8422;DHT22;4248;48.196;10.924;2023-03-13T17:29:41;14.90;29.60
8422;DHT22;4248;48.196;10.924;2023-03-13T17:32:11;14.70;29.40
8422;DHT22;4248;48.196;10.924;2023-03-13T17:34:37;14.50;29.30
8422;DHT22;4248;48.196;10.924;2023-03-13T17:37:15;14.40;29.60
8422;DHT22;4248;48.196;10.924;2023-03-13T17:39:42;14.30;30.00
8422;DHT22;4248;48.196;10.924;2023-03-13T17:42:08;14.20;30.20